Terminal Aerodrome Forecast
Issued by NWS

Current Version | Previous Version | Text Only | Print | Product List | Glossary On
Versions: 1 2 3 4 5 6 7 8 9 10 11 12 13 14 15
000
FTAK31 PAJN 230500
TAFAJN
TAF
PAJN 230520Z 2306/2406 10012KT P6SM VCSH SCT060 BKN100
     FM230900 08005KT P6SM SCT050 OVC100
     FM231200 09008KT P6SM BKN040 OVC080
     FM232100 12012KT P6SM VCSH BKN035 OVC070
     FM240000 14006KT P6SM OVC050=

USA.gov is the U.S. government's official web portal to all federal, state and local government web resources and services.